Skip Navigation LinksHome page > Weather > Current weather Skip Navigation Links

Current Weather

Eureka, Nunavut

For information only: do not use for flight planning or navigation.
Latest weather
Observation time Friday, July 25, 2014 7:00 AM CDT
Local time Friday, July 25, 2014 7:59 AM CDT
Flight conditions Visual Meteorological Conditions
Winds
Wind direction West-Southwest (250°)
Wind speed 7 mph
Visibility 15 mi.
Sky condition
Ceiling 8,000 ft. broken clouds
Cloud layer broken clouds 8,000 ft.
Cloud layer broken clouds 20,000 ft.
Temperature 37°F
Dewpoint 30°F
Altimeter 29.84 in.Hg
Derived measurements
Relative humidity 75%
Wind chill 32°F
Density altitude -1276 ft.
Sea-level pressure 29.85 in.Hg
METAR CWEU 251200Z 25006KT 15SM BKN080 BKN200 03/M01 A2984 RMK AC5CI1 SLP107

Settings

Location code

InnerDrive.Weather 4.0.5294.0 Release CLR 4.0.30319.34014
Copyright ©2014 Inner Drive Technology. All rights reserved. Portions Copyright ©1986-2014 David Braverman.

Find weather

Site navigation


Skip Navigation Links

Place info

Page info

PayPal - The safer, easier way to pay online!

Return home.

Copyright ©2014 Inner Drive Technology. Purveyors of fine, hand-crafted computer software. Page printed 2014-07-25T12:59:18 UTC.